Time;durP1;ratioP1;P1;durP2;ratioP2;P2;SDS_P1;SDS_P2;PMS_P1;PMS_P2;Temp;Humidity;BMP_temperature;BMP_pressure;BME280_temperature;BME280_humidity;BME280_pressure;Samples;Min_cycle;Max_cycle;Signal;HPM_P1;HPM_P2
2023/07/18 00:01:50;;;;;;;5.15;2.55;;;;;;;;;;7376418;19;20476;-85
2023/07/18 00:04:15;;;;;;;6.95;2.90;;;;;;;;;;7377105;19;20015;-83
2023/07/18 00:06:41;;;;;;;7.03;2.42;;;;;;;;;;7395261;19;20014;-83
2023/07/18 00:09:07;;;;;;;4.97;2.53;;;;;;;;;;7374059;19;20015;-85
2023/07/18 00:11:33;;;;;;;8.07;3.00;;;;;;;;;;7373058;19;20011;-83
2023/07/18 00:13:58;;;;;;;6.88;3.05;;;;;;;;;;7376596;19;20010;-84
2023/07/18 00:16:24;;;;;;;6.38;2.95;;;;;;;;;;7374231;19;20014;-84
2023/07/18 00:18:50;;;;;;;9.73;3.30;;;;;;;;;;7379986;19;20011;-85
2023/07/18 00:21:16;;;;;;;7.45;2.75;;;;;;;;;;7423710;19;20027;-83
2023/07/18 00:23:41;;;;;;;6.03;2.95;;;;;;;;;;7394650;19;20014;-83
2023/07/18 00:26:08;;;;;;;7.63;2.95;;;;;;;;;;7384715;19;20046;-83
2023/07/18 00:28:34;;;;;;;5.65;2.85;;;;;;;;;;7391569;19;20029;-84
2023/07/18 00:30:59;;;;;;;10.85;3.28;;;;;;;;;;7388489;19;20499;-83
2023/07/18 00:33:25;;;;;;;10.55;2.78;;;;;;;;;;7411345;19;20463;-84
2023/07/18 00:35:51;;;;;;;8.15;3.45;;;;;;;;;;7378512;19;20081;-83
2023/07/18 00:38:16;;;;;;;6.60;3.00;;;;;;;;;;7376815;19;20029;-83
2023/07/18 00:40:41;;;;;;;6.10;2.83;;;;;;;;;;7373936;19;20007;-83
2023/07/18 00:43:17;;;;;;;8.10;2.55;;;;;;;;;;7376947;19;21115;-83
2023/07/18 00:45:44;;;;;;;9.98;3.08;;;;;;;;;;7401389;19;20472;-84
2023/07/18 00:48:10;;;;;;;9.10;3.20;;;;;;;;;;7375669;19;20858;-84
2023/07/18 00:50:36;;;;;;;6.95;3.05;;;;;;;;;;7378522;19;20002;-84
2023/07/18 00:53:02;;;;;;;6.28;3.05;;;;;;;;;;7393062;19;20014;-84
2023/07/18 00:55:28;;;;;;;6.75;2.90;;;;;;;;;;7403144;19;20048;-83
2023/07/18 00:57:54;;;;;;;7.05;3.28;;;;;;;;;;7404313;19;19999;-84
2023/07/18 01:00:22;;;;;;;8.27;3.33;;;;;;;;;;7429529;19;19995;-83
2023/07/18 01:02:49;;;;;;;7.35;3.08;;;;;;;;;;7393649;19;20065;-85
2023/07/18 01:05:19;;;;;;;8.02;3.17;;;;;;;;;;7382154;19;20007;-84
2023/07/18 01:07:48;;;;;;;6.78;3.28;;;;;;;;;;7377678;19;20003;-84
2023/07/18 01:10:13;;;;;;;9.77;3.33;;;;;;;;;;7374265;19;20014;-82
2023/07/18 01:12:38;;;;;;;8.30;3.30;;;;;;;;;;7393017;19;20396;-83
2023/07/18 01:15:04;;;;;;;7.97;3.25;;;;;;;;;;7369814;19;20014;-83
2023/07/18 01:17:30;;;;;;;11.88;2.95;;;;;;;;;;7370674;19;20025;-84
2023/07/18 01:19:57;;;;;;;8.40;3.20;;;;;;;;;;7370391;19;20011;-83
2023/07/18 01:22:22;;;;;;;8.35;3.40;;;;;;;;;;7371445;19;20082;-83
2023/07/18 01:24:47;;;;;;;11.25;3.33;;;;;;;;;;7391542;19;20014;-85
2023/07/18 01:27:13;;;;;;;6.43;3.05;;;;;;;;;;7374650;19;20491;-83
2023/07/18 01:29:39;;;;;;;5.35;2.90;;;;;;;;;;7370388;19;20031;-84
2023/07/18 01:32:04;;;;;;;8.45;3.40;;;;;;;;;;7368931;19;20018;-84
2023/07/18 01:34:30;;;;;;;8.30;3.05;;;;;;;;;;7372669;19;20002;-83
2023/07/18 01:36:55;;;;;;;7.72;3.45;;;;;;;;;;7374501;19;20022;-82
2023/07/18 01:39:20;;;;;;;7.43;3.10;;;;;;;;;;7399110;19;20010;-82
2023/07/18 01:41:47;;;;;;;8.20;3.33;;;;;;;;;;7382187;19;20010;-82
2023/07/18 01:44:13;;;;;;;7.40;3.38;;;;;;;;;;7395624;19;20014;-82
2023/07/18 01:46:38;;;;;;;7.55;3.10;;;;;;;;;;7394071;19;20010;-84
2023/07/18 01:49:03;;;;;;;9.55;3.00;;;;;;;;;;7385755;19;20781;-82
2023/07/18 01:51:29;;;;;;;9.10;3.33;;;;;;;;;;7418502;19;20026;-83
2023/07/18 01:53:54;;;;;;;10.43;3.30;;;;;;;;;;7377592;19;20046;-82
2023/07/18 01:56:19;;;;;;;9.15;3.75;;;;;;;;;;7371878;19;20129;-83
2023/07/18 01:58:45;;;;;;;6.55;3.10;;;;;;;;;;7368148;19;20337;-83
2023/07/18 02:01:10;;;;;;;5.93;3.15;;;;;;;;;;7370811;19;20035;-83
2023/07/18 02:03:35;;;;;;;6.72;3.22;;;;;;;;;;7396302;19;20010;-83
2023/07/18 02:06:01;;;;;;;6.78;3.38;;;;;;;;;;7404349;19;20002;-84
2023/07/18 02:08:26;;;;;;;7.57;3.35;;;;;;;;;;7395520;19;20071;-84
2023/07/18 02:10:51;;;;;;;7.43;3.42;;;;;;;;;;7373350;19;20038;-84
2023/07/18 02:13:17;;;;;;;8.95;3.85;;;;;;;;;;7371665;19;20022;-83
2023/07/18 02:15:42;;;;;;;5.80;3.42;;;;;;;;;;7401869;19;20059;-84
2023/07/18 02:18:07;;;;;;;7.80;3.30;;;;;;;;;;7376321;19;20018;-84
2023/07/18 02:20:33;;;;;;;6.45;3.00;;;;;;;;;;7378767;19;20006;-84
2023/07/18 02:23:00;;;;;;;7.03;3.45;;;;;;;;;;7380346;19;20096;-83
2023/07/18 02:25:26;;;;;;;9.40;3.60;;;;;;;;;;7378020;19;20536;-83
2023/07/18 02:27:51;;;;;;;6.25;3.17;;;;;;;;;;7377216;19;20010;-83
2023/07/18 02:30:16;;;;;;;6.70;3.45;;;;;;;;;;7400872;19;20024;-84
2023/07/18 02:32:43;;;;;;;8.18;3.65;;;;;;;;;;7376696;19;20006;-83
2023/07/18 02:35:10;;;;;;;8.82;3.20;;;;;;;;;;7383195;19;20018;-84
2023/07/18 02:37:35;;;;;;;6.85;3.30;;;;;;;;;;7388681;19;20042;-83
2023/07/18 02:40:09;;;;;;;7.40;3.10;;;;;;;;;;7388324;19;20006;-82
2023/07/18 02:42:35;;;;;;;9.57;3.85;;;;;;;;;;7403687;19;20033;-82
2023/07/18 02:45:00;;;;;;;6.75;3.25;;;;;;;;;;7383484;19;20007;-84
2023/07/18 02:47:25;;;;;;;6.68;3.10;;;;;;;;;;7377579;19;19999;-82
2023/07/18 02:49:51;;;;;;;7.75;3.25;;;;;;;;;;7379037;19;20015;-84
2023/07/18 02:52:16;;;;;;;8.25;3.58;;;;;;;;;;7376604;19;20405;-83
2023/07/18 02:54:41;;;;;;;8.63;3.50;;;;;;;;;;7399987;19;20562;-82
2023/07/18 02:57:07;;;;;;;8.07;3.30;;;;;;;;;;7376435;19;20044;-84
2023/07/18 02:59:32;;;;;;;9.40;3.15;;;;;;;;;;7378047;19;20010;-84
2023/07/18 03:01:58;;;;;;;6.05;3.00;;;;;;;;;;7377356;19;20014;-84
2023/07/18 03:04:26;;;;;;;7.78;3.75;;;;;;;;;;7378670;19;20023;-84
2023/07/18 03:06:52;;;;;;;10.65;3.10;;;;;;;;;;7378586;19;20007;-85
2023/07/18 03:09:19;;;;;;;7.78;3.20;;;;;;;;;;7400898;19;20110;-83
2023/07/18 03:11:45;;;;;;;8.00;3.08;;;;;;;;;;7376606;19;20043;-84
2023/07/18 03:14:11;;;;;;;6.85;3.28;;;;;;;;;;7378565;19;20006;-84
2023/07/18 03:16:38;;;;;;;5.38;2.95;;;;;;;;;;7373966;19;20022;-83
2023/07/18 03:19:03;;;;;;;7.45;3.00;;;;;;;;;;7376506;19;20042;-85
2023/07/18 03:21:29;;;;;;;7.93;2.97;;;;;;;;;;7409352;19;20474;-82
2023/07/18 03:23:54;;;;;;;5.97;3.00;;;;;;;;;;7393040;19;20341;-82
2023/07/18 03:26:20;;;;;;;5.55;3.03;;;;;;;;;;7390320;19;20017;-82
2023/07/18 03:28:45;;;;;;;7.57;2.88;;;;;;;;;;7410565;19;20014;-83
2023/07/18 03:31:10;;;;;;;6.18;3.10;;;;;;;;;;7411434;19;19994;-82
2023/07/18 03:33:36;;;;;;;6.40;3.10;;;;;;;;;;7415927;19;20006;-84
2023/07/18 03:36:02;;;;;;;8.27;3.78;;;;;;;;;;7378217;19;20044;-84
2023/07/18 03:38:27;;;;;;;5.57;2.88;;;;;;;;;;7403094;19;20018;-81
2023/07/18 03:40:53;;;;;;;4.65;2.70;;;;;;;;;;7409219;19;20028;-82
2023/07/18 03:43:18;;;;;;;13.25;3.45;;;;;;;;;;7400282;19;20027;-83
2023/07/18 03:45:43;;;;;;;9.60;3.13;;;;;;;;;;7409093;19;20019;-82
2023/07/18 03:48:08;;;;;;;8.00;3.42;;;;;;;;;;7381516;19;20423;-83
2023/07/18 03:50:34;;;;;;;7.80;3.25;;;;;;;;;;7406545;19;20380;-83
2023/07/18 03:52:59;;;;;;;7.20;3.13;;;;;;;;;;7390797;19;20707;-83
2023/07/18 03:55:24;;;;;;;6.35;3.10;;;;;;;;;;7386826;19;20006;-84
2023/07/18 03:57:50;;;;;;;6.32;3.28;;;;;;;;;;7382412;19;20015;-84
2023/07/18 04:00:17;;;;;;;6.60;2.97;;;;;;;;;;7429323;19;20443;-85
2023/07/18 04:02:45;;;;;;;8.48;3.30;;;;;;;;;;7408737;19;20034;-84
2023/07/18 04:05:11;;;;;;;7.13;3.15;;;;;;;;;;7402413;19;20042;-83
2023/07/18 04:07:36;;;;;;;7.28;3.13;;;;;;;;;;7389963;19;20011;-83
2023/07/18 04:10:02;;;;;;;9.48;3.13;;;;;;;;;;7385675;19;20010;-82
2023/07/18 04:12:28;;;;;;;7.30;3.42;;;;;;;;;;7404011;19;20024;-83
2023/07/18 04:14:53;;;;;;;7.72;3.25;;;;;;;;;;7375572;19;20013;-72
2023/07/18 04:17:19;;;;;;;7.88;3.15;;;;;;;;;;7365151;19;20022;-73
2023/07/18 04:19:44;;;;;;;6.30;2.90;;;;;;;;;;7366581;19;20097;-75
2023/07/18 04:22:09;;;;;;;8.95;3.28;;;;;;;;;;7365771;19;20447;-74
2023/07/18 04:24:35;;;;;;;7.47;3.28;;;;;;;;;;7387189;19;20011;-74
2023/07/18 04:27:00;;;;;;;6.35;3.33;;;;;;;;;;7362050;19;20106;-74
2023/07/18 04:29:26;;;;;;;9.50;3.40;;;;;;;;;;7361734;19;20007;-74
2023/07/18 04:31:51;;;;;;;7.50;3.80;;;;;;;;;;7362217;19;20503;-75
2023/07/18 04:34:17;;;;;;;6.32;3.15;;;;;;;;;;7363167;19;20010;-74
2023/07/18 04:36:42;;;;;;;5.78;3.00;;;;;;;;;;7383648;19;20042;-75
2023/07/18 04:39:08;;;;;;;8.95;3.60;;;;;;;;;;7361045;19;20441;-75
2023/07/18 04:41:33;;;;;;;8.57;3.47;;;;;;;;;;7364701;19;20002;-75
2023/07/18 04:43:58;;;;;;;7.78;3.42;;;;;;;;;;7366988;19;20021;-76
2023/07/18 04:46:24;;;;;;;9.80;3.97;;;;;;;;;;7366292;19;20048;-74
2023/07/18 04:48:49;;;;;;;9.82;3.42;;;;;;;;;;7371359;19;20077;-76
2023/07/18 04:51:16;;;;;;;10.30;3.45;;;;;;;;;;7389374;19;20546;-76
2023/07/18 04:53:42;;;;;;;8.48;3.30;;;;;;;;;;7369556;19;20056;-76
2023/07/18 04:56:07;;;;;;;8.68;3.17;;;;;;;;;;7368118;19;20014;-75
2023/07/18 04:58:33;;;;;;;8.60;3.88;;;;;;;;;;7368367;19;20077;-76
2023/07/18 05:00:59;;;;;;;9.43;3.33;;;;;;;;;;7365983;19;20031;-79
2023/07/18 05:03:26;;;;;;;7.93;3.65;;;;;;;;;;7394347;19;20002;-79
2023/07/18 05:05:52;;;;;;;10.05;3.88;;;;;;;;;;7365854;19;20027;-78
2023/07/18 05:08:18;;;;;;;6.25;3.42;;;;;;;;;;7368094;19;20015;-78
2023/07/18 05:10:43;;;;;;;7.78;3.42;;;;;;;;;;7367687;19;20709;-78
2023/07/18 05:13:08;;;;;;;9.30;3.10;;;;;;;;;;7392933;19;20011;-78
2023/07/18 05:15:34;;;;;;;11.65;3.83;;;;;;;;;;7411391;19;20457;-79
2023/07/18 05:18:00;;;;;;;13.10;3.78;;;;;;;;;;7388937;19;20046;-78
2023/07/18 05:20:25;;;;;;;8.73;3.50;;;;;;;;;;7400947;19;20006;-78
2023/07/18 05:22:50;;;;;;;7.85;3.88;;;;;;;;;;7396713;19;20003;-77
2023/07/18 05:25:17;;;;;;;8.65;3.55;;;;;;;;;;7406387;19;19998;-79
2023/07/18 05:27:43;;;;;;;8.82;3.83;;;;;;;;;;7429946;19;20359;-78
2023/07/18 05:30:14;;;;;;;8.27;3.53;;;;;;;;;;7397163;19;20006;-78
2023/07/18 05:32:40;;;;;;;8.20;3.67;;;;;;;;;;7403702;19;20002;-79
2023/07/18 05:35:06;;;;;;;9.32;3.50;;;;;;;;;;7402089;19;20066;-78
2023/07/18 05:37:31;;;;;;;12.65;3.78;;;;;;;;;;7400345;19;19999;-79
2023/07/18 05:39:56;;;;;;;21.15;4.53;;;;;;;;;;7398848;19;20022;-78
2023/07/18 05:42:22;;;;;;;16.65;4.57;;;;;;;;;;7405447;19;20002;-77
2023/07/18 05:44:48;;;;;;;12.10;4.03;;;;;;;;;;7378102;19;20070;-79
2023/07/18 05:47:13;;;;;;;11.15;3.78;;;;;;;;;;7385006;19;20448;-79
2023/07/18 05:49:39;;;;;;;9.38;3.40;;;;;;;;;;7389262;19;20146;-79
2023/07/18 05:52:05;;;;;;;6.20;3.28;;;;;;;;;;7385174;19;20029;-79
2023/07/18 05:54:30;;;;;;;11.65;3.92;;;;;;;;;;7401070;19;19999;-77
2023/07/18 05:57:00;;;;;;;10.20;3.40;;;;;;;;;;7368263;19;20074;-78
2023/07/18 05:59:28;;;;;;;6.45;3.35;;;;;;;;;;7372430;19;20017;-77
2023/07/18 06:01:53;;;;;;;10.82;3.60;;;;;;;;;;7383098;19;19998;-77
2023/07/18 06:04:18;;;;;;;7.45;3.17;;;;;;;;;;7393939;19;20059;-78
2023/07/18 06:06:44;;;;;;;7.82;3.28;;;;;;;;;;7426939;19;19999;-78
2023/07/18 06:09:10;;;;;;;5.28;2.90;;;;;;;;;;7396921;19;20007;-78
2023/07/18 06:11:35;;;;;;;7.88;2.95;;;;;;;;;;7395345;19;20009;-79
2023/07/18 06:14:01;;;;;;;11.25;3.92;;;;;;;;;;7376592;19;20002;-77
2023/07/18 06:16:27;;;;;;;9.45;3.22;;;;;;;;;;7373680;19;20059;-78
2023/07/18 06:18:53;;;;;;;11.40;3.53;;;;;;;;;;7365055;19;20043;-78
2023/07/18 06:21:18;;;;;;;7.10;3.35;;;;;;;;;;7384171;19;20014;-77
2023/07/18 06:23:44;;;;;;;5.93;3.00;;;;;;;;;;7365235;19;20495;-78
2023/07/18 06:26:09;;;;;;;9.30;3.50;;;;;;;;;;7370851;19;20014;-79
2023/07/18 06:28:35;;;;;;;8.73;3.42;;;;;;;;;;7389640;19;20010;-78
2023/07/18 06:31:00;;;;;;;11.07;3.03;;;;;;;;;;7399624;19;20005;-77
2023/07/18 06:33:25;;;;;;;8.50;3.00;;;;;;;;;;7416909;19;20011;-79
2023/07/18 06:35:52;;;;;;;6.80;2.70;;;;;;;;;;7385359;19;20002;-79
2023/07/18 06:38:17;;;;;;;11.98;3.28;;;;;;;;;;7385406;19;20014;-79
2023/07/18 06:40:47;;;;;;;9.40;2.92;;;;;;;;;;7401363;19;20017;-79
2023/07/18 06:43:16;;;;;;;14.32;3.50;;;;;;;;;;7374934;19;21534;-80
2023/07/18 06:45:46;;;;;;;5.95;2.90;;;;;;;;;;7417661;19;20011;-78
2023/07/18 06:48:14;;;;;;;8.27;3.17;;;;;;;;;;7391757;19;20010;-78
2023/07/18 06:50:46;;;;;;;6.65;3.05;;;;;;;;;;7386995;19;20062;-78
2023/07/18 06:53:11;;;;;;;7.25;3.20;;;;;;;;;;7387702;19;20028;-78
2023/07/18 06:55:37;;;;;;;5.40;3.10;;;;;;;;;;7392026;19;20538;-78
2023/07/18 06:58:03;;;;;;;7.40;2.90;;;;;;;;;;7412512;19;20015;-79
2023/07/18 07:00:28;;;;;;;5.70;2.97;;;;;;;;;;7383850;19;20002;-79
2023/07/18 07:02:54;;;;;;;9.18;2.83;;;;;;;;;;7406287;19;20010;-78
2023/07/18 07:05:20;;;;;;;9.00;3.17;;;;;;;;;;7402592;19;20086;-78
2023/07/18 07:07:45;;;;;;;8.05;2.88;;;;;;;;;;7397269;19;20051;-78
2023/07/18 07:10:10;;;;;;;6.05;2.85;;;;;;;;;;7404210;19;20011;-79
2023/07/18 07:12:36;;;;;;;9.52;2.80;;;;;;;;;;7415127;19;20107;-78
2023/07/18 07:15:02;;;;;;;5.80;2.63;;;;;;;;;;7401006;19;20019;-78
2023/07/18 07:17:27;;;;;;;8.77;2.75;;;;;;;;;;7404087;19;20011;-78
2023/07/18 07:19:53;;;;;;;5.18;2.90;;;;;;;;;;7405507;19;19995;-77
2023/07/18 07:22:18;;;;;;;5.80;2.80;;;;;;;;;;7401099;19;20022;-79
2023/07/18 07:24:46;;;;;;;5.47;2.70;;;;;;;;;;7418393;19;20007;-78
2023/07/18 07:27:13;;;;;;;7.80;2.75;;;;;;;;;;7394869;19;20017;-79
2023/07/18 07:29:41;;;;;;;4.85;2.60;;;;;;;;;;7399457;19;20020;-78
2023/07/18 07:32:07;;;;;;;7.40;2.53;;;;;;;;;;7396879;19;20083;-79
2023/07/18 07:34:32;;;;;;;6.22;2.13;;;;;;;;;;7394175;19;20010;-78
2023/07/18 07:36:58;;;;;;;5.00;2.40;;;;;;;;;;7406744;19;20019;-78
2023/07/18 07:39:23;;;;;;;4.97;2.40;;;;;;;;;;7383127;19;20023;-78
2023/07/18 07:41:48;;;;;;;4.90;2.42;;;;;;;;;;7392053;19;20008;-79
2023/07/18 07:44:14;;;;;;;5.77;2.37;;;;;;;;;;7397169;19;20043;-79
2023/07/18 07:46:39;;;;;;;4.68;2.50;;;;;;;;;;7400661;19;20273;-79
2023/07/18 07:49:04;;;;;;;4.32;1.92;;;;;;;;;;7414349;19;20022;-78
2023/07/18 07:51:30;;;;;;;6.22;2.38;;;;;;;;;;7392497;19;20425;-79
2023/07/18 07:53:56;;;;;;;4.68;2.35;;;;;;;;;;7388420;19;20519;-79
2023/07/18 07:56:21;;;;;;;5.13;2.22;;;;;;;;;;7373263;19;20062;-79
2023/07/18 07:58:47;;;;;;;4.90;2.05;;;;;;;;;;7378107;19;20036;-78
2023/07/18 08:01:12;;;;;;;5.40;2.25;;;;;;;;;;7390841;19;19999;-78
2023/07/18 08:03:39;;;;;;;4.85;2.25;;;;;;;;;;7415020;19;20091;-78
2023/07/18 08:06:04;;;;;;;4.20;2.50;;;;;;;;;;7394732;19;20010;-78
2023/07/18 08:08:31;;;;;;;6.10;2.35;;;;;;;;;;7391256;19;20018;-78
2023/07/18 08:10:56;;;;;;;5.80;2.20;;;;;;;;;;7395274;19;20015;-78
2023/07/18 08:13:21;;;;;;;8.25;2.38;;;;;;;;;;7380077;19;20029;-78
2023/07/18 08:15:46;;;;;;;5.55;2.22;;;;;;;;;;7406829;19;20073;-78
2023/07/18 08:18:12;;;;;;;4.85;2.20;;;;;;;;;;7390648;19;20002;-77
2023/07/18 08:20:37;;;;;;;6.72;2.25;;;;;;;;;;7384129;19;20064;-78
2023/07/18 08:23:03;;;;;;;3.95;2.03;;;;;;;;;;7375050;19;20014;-78
2023/07/18 08:25:28;;;;;;;5.10;2.40;;;;;;;;;;7379374;19;20214;-79
2023/07/18 08:27:54;;;;;;;5.88;2.65;;;;;;;;;;7413050;19;20015;-79
2023/07/18 08:30:19;;;;;;;4.03;2.15;;;;;;;;;;7388785;19;20010;-79
2023/07/18 08:32:45;;;;;;;4.55;2.53;;;;;;;;;;7382215;19;20007;-78
2023/07/18 08:35:11;;;;;;;6.03;2.20;;;;;;;;;;7376264;19;20002;-79
2023/07/18 08:37:36;;;;;;;4.85;2.40;;;;;;;;;;7384875;19;20006;-77
2023/07/18 08:40:04;;;;;;;5.07;2.40;;;;;;;;;;7426053;19;20009;-78
2023/07/18 08:42:31;;;;;;;5.18;2.08;;;;;;;;;;7403082;19;20006;-77
2023/07/18 08:44:57;;;;;;;7.82;2.45;;;;;;;;;;7381213;19;20014;-79
2023/07/18 08:47:25;;;;;;;4.78;2.30;;;;;;;;;;7395950;19;20022;-79
2023/07/18 08:49:51;;;;;;;7.18;2.75;;;;;;;;;;7401065;19;20333;-79
2023/07/18 08:52:16;;;;;;;8.95;2.30;;;;;;;;;;7383478;19;20010;-77
2023/07/18 08:54:42;;;;;;;4.60;2.30;;;;;;;;;;7401403;19;19998;-78
2023/07/18 08:57:07;;;;;;;7.43;2.20;;;;;;;;;;7375798;19;20762;-78
2023/07/18 08:59:33;;;;;;;3.92;2.10;;;;;;;;;;7379457;19;20010;-79
2023/07/18 09:01:58;;;;;;;6.65;2.38;;;;;;;;;;7383379;19;20023;-78
2023/07/18 09:04:24;;;;;;;7.70;2.00;;;;;;;;;;7397500;19;20013;-78
2023/07/18 09:06:56;;;;;;;3.60;2.15;;;;;;;;;;7403003;19;20010;-78
2023/07/18 09:09:22;;;;;;;4.82;2.95;;;;;;;;;;7381300;19;20019;-79
2023/07/18 09:12:01;;;;;;;5.97;2.30;;;;;;;;;;7378150;19;20023;-79
2023/07/18 09:14:31;;;;;;;7.00;2.35;;;;;;;;;;7377832;19;20110;-79
2023/07/18 09:16:58;;;;;;;;;;;;;;;;;;7378960;19;20018;-78
2023/07/18 09:19:43;;;;;;;5.75;2.47;;;;;;;;;;7376371;19;19952;-78
2023/07/18 09:22:13;;;;;;;4.85;2.10;;;;;;;;;;7396750;19;20014;-78
2023/07/18 09:24:40;;;;;;;;;;;;;;;;;;7388293;19;20002;-78
2023/07/18 09:27:09;;;;;;;4.18;2.10;;;;;;;;;;7404798;19;19907;-78
2023/07/18 09:29:34;;;;;;;5.70;2.30;;;;;;;;;;7400449;19;20006;-78
2023/07/18 09:32:00;;;;;;;3.58;1.92;;;;;;;;;;7375873;19;20364;-78
2023/07/18 09:34:27;;;;;;;8.98;2.20;;;;;;;;;;7370342;19;20003;-78
2023/07/18 09:36:59;;;;;;;4.30;2.15;;;;;;;;;;7390850;19;19998;-78
2023/07/18 09:39:25;;;;;;;5.85;2.33;;;;;;;;;;7366784;19;20010;-78
2023/07/18 09:41:51;;;;;;;4.13;1.95;;;;;;;;;;7370873;19;20086;-77
2023/07/18 09:44:18;;;;;;;4.53;2.20;;;;;;;;;;7369748;19;20007;-78
2023/07/18 09:46:44;;;;;;;4.90;2.20;;;;;;;;;;7373802;19;20016;-79
2023/07/18 09:49:10;;;;;;;6.18;2.30;;;;;;;;;;7393091;19;20025;-79
2023/07/18 09:51:37;;;;;;;4.20;2.22;;;;;;;;;;7372654;19;20014;-78
2023/07/18 09:54:05;;;;;;;4.35;2.38;;;;;;;;;;7361290;19;20014;-79
2023/07/18 09:56:33;;;;;;;6.07;2.42;;;;;;;;;;7373043;19;20021;-79
2023/07/18 09:59:04;;;;;;;6.25;2.22;;;;;;;;;;7371359;19;20007;-79
2023/07/18 10:01:32;;;;;;;5.95;1.95;;;;;;;;;;7371752;19;20016;-79
2023/07/18 10:03:58;;;;;;;7.63;2.35;;;;;;;;;;7395824;19;20007;-77
2023/07/18 10:06:24;;;;;;;4.72;2.15;;;;;;;;;;7371416;19;20602;-78
2023/07/18 10:08:50;;;;;;;5.47;2.20;;;;;;;;;;7368323;19;20013;-76
2023/07/18 10:11:15;;;;;;;3.08;1.83;;;;;;;;;;7372019;19;20111;-77
2023/07/18 10:14:11;;;;;;;4.85;2.42;;;;;;;;;;7374662;19;20080;-77
2023/07/18 10:16:40;;;;;;;4.75;2.33;;;;;;;;;;7373631;19;20064;-78
2023/07/18 10:19:20;;;;;;;;;;;;;;;;;;7407438;19;19999;-78
2023/07/18 10:21:46;;;;;;;6.35;2.00;;;;;;;;;;7403765;19;19915;-78
2023/07/18 10:24:21;;;;;;;5.07;2.10;;;;;;;;;;7404799;19;20029;-78
2023/07/18 10:26:48;;;;;;;5.28;2.47;;;;;;;;;;7405335;19;20031;-79
2023/07/18 10:29:14;;;;;;;6.20;2.25;;;;;;;;;;7404432;19;20003;-79
2023/07/18 10:31:39;;;;;;;4.25;2.08;;;;;;;;;;7401187;19;19995;-79
2023/07/18 10:34:16;;;;;;;5.43;2.40;;;;;;;;;;7419909;19;20002;-78
2023/07/18 10:36:58;;;;;;;6.32;2.55;;;;;;;;;;7404964;19;20011;-78
2023/07/18 10:39:39;;;;;;;4.25;2.05;;;;;;;;;;7400061;19;20031;-78
2023/07/18 10:42:23;;;;;;;3.97;2.05;;;;;;;;;;7387117;19;20009;-78
2023/07/18 10:44:54;;;;;;;5.00;2.00;;;;;;;;;;7378938;19;20811;-78
2023/07/18 10:47:19;;;;;;;4.82;2.20;;;;;;;;;;7373028;19;20009;-78
2023/07/18 10:49:47;;;;;;;6.57;2.15;;;;;;;;;;7374837;19;20018;-77
2023/07/18 10:52:13;;;;;;;5.93;2.00;;;;;;;;;;7389089;19;20003;-79
2023/07/18 10:54:44;;;;;;;6.60;2.30;;;;;;;;;;7431326;19;20024;-78
2023/07/18 10:57:09;;;;;;;5.55;2.10;;;;;;;;;;7408174;19;20002;-78
2023/07/18 10:59:36;;;;;;;4.95;2.28;;;;;;;;;;7396006;19;20035;-78
2023/07/18 11:02:03;;;;;;;3.75;2.03;;;;;;;;;;7383633;19;20487;-78
2023/07/18 11:04:29;;;;;;;5.78;2.30;;;;;;;;;;7381522;19;20019;-77
2023/07/18 11:06:55;;;;;;;4.60;2.00;;;;;;;;;;7397884;19;20011;-77
2023/07/18 11:09:22;;;;;;;4.28;2.10;;;;;;;;;;7376626;19;20044;-77
2023/07/18 11:11:48;;;;;;;3.78;2.10;;;;;;;;;;7370677;19;20028;-78
2023/07/18 11:14:13;;;;;;;5.70;2.25;;;;;;;;;;7378468;19;20010;-79
2023/07/18 11:16:38;;;;;;;5.50;2.33;;;;;;;;;;7378730;19;20026;-79
2023/07/18 11:19:07;;;;;;;6.78;2.70;;;;;;;;;;7402239;19;20487;-78
2023/07/18 11:21:34;;;;;;;6.80;2.33;;;;;;;;;;7378449;19;20013;-80
2023/07/18 11:24:00;;;;;;;5.18;2.08;;;;;;;;;;7379496;19;20078;-78
2023/07/18 11:26:25;;;;;;;6.60;2.67;;;;;;;;;;7375793;19;20477;-73
2023/07/18 11:28:52;;;;;;;6.90;2.22;;;;;;;;;;7366709;19;20006;-72
2023/07/18 11:31:28;;;;;;;4.57;2.05;;;;;;;;;;7365134;19;20011;-70
2023/07/18 11:33:58;;;;;;;4.43;2.33;;;;;;;;;;7389411;19;20417;-70
2023/07/18 11:36:29;;;;;;;5.00;2.05;;;;;;;;;;7362029;19;20010;-71
2023/07/18 11:38:54;;;;;;;6.97;2.33;;;;;;;;;;7366497;19;20014;-73
2023/07/18 11:41:39;;;;;;;7.55;2.17;;;;;;;;;;7364712;19;20042;-70
2023/07/18 11:44:08;;;;;;;4.85;2.10;;;;;;;;;;7370431;19;20595;-72
2023/07/18 11:46:36;;;;;;;4.22;2.20;;;;;;;;;;7366465;19;20041;-72
2023/07/18 11:49:02;;;;;;;8.60;2.35;;;;;;;;;;7389208;19;20013;-73
2023/07/18 11:51:27;;;;;;;3.83;1.88;;;;;;;;;;7367388;19;20069;-72
2023/07/18 11:53:53;;;;;;;3.92;2.08;;;;;;;;;;7367870;19;20013;-74
2023/07/18 11:56:19;;;;;;;10.43;2.67;;;;;;;;;;7366423;19;20014;-75
2023/07/18 11:58:44;;;;;;;5.57;2.15;;;;;;;;;;7365006;19;20069;-75
2023/07/18 12:01:10;;;;;;;4.10;2.30;;;;;;;;;;7384159;19;20070;-73
2023/07/18 12:03:36;;;;;;;4.43;2.37;;;;;;;;;;7375053;19;20007;-74
2023/07/18 12:06:01;;;;;;;5.82;2.08;;;;;;;;;;7367011;19;20252;-73
2023/07/18 12:08:27;;;;;;;6.25;2.05;;;;;;;;;;7367875;19;20006;-76
2023/07/18 12:10:52;;;;;;;4.70;2.25;;;;;;;;;;7368218;19;20014;-76
2023/07/18 12:13:18;;;;;;;4.90;2.60;;;;;;;;;;7366277;19;20027;-74
2023/07/18 12:15:43;;;;;;;4.55;2.15;;;;;;;;;;7393786;19;20014;-73
2023/07/18 12:18:09;;;;;;;6.10;2.20;;;;;;;;;;7371920;19;20507;-72
2023/07/18 12:20:34;;;;;;;4.85;2.05;;;;;;;;;;7370973;19;20104;-71
2023/07/18 12:23:00;;;;;;;4.15;2.10;;;;;;;;;;7366877;19;20006;-73
2023/07/18 12:25:31;;;;;;;4.88;2.00;;;;;;;;;;7366881;19;20010;-72
2023/07/18 12:27:56;;;;;;;6.20;2.20;;;;;;;;;;7388176;19;20126;-72
2023/07/18 12:30:22;;;;;;;5.32;2.05;;;;;;;;;;7365744;19;20106;-73
2023/07/18 12:32:47;;;;;;;6.93;2.30;;;;;;;;;;7365906;19;20089;-70
2023/07/18 12:35:14;;;;;;;4.47;1.95;;;;;;;;;;7367156;19;20017;-79
2023/07/18 12:37:40;;;;;;;3.33;1.92;;;;;;;;;;7365723;19;20568;-71
2023/07/18 12:40:07;;;;;;;5.95;2.25;;;;;;;;;;7386536;19;20010;-70
2023/07/18 12:42:32;;;;;;;3.83;2.05;;;;;;;;;;7365918;19;20138;-70
2023/07/18 12:44:58;;;;;;;4.63;2.20;;;;;;;;;;7367586;19;20014;-71
2023/07/18 12:47:23;;;;;;;5.45;2.15;;;;;;;;;;7368637;19;20381;-70
2023/07/18 12:49:48;;;;;;;6.57;1.95;;;;;;;;;;7371270;19;20023;-70
2023/07/18 12:52:14;;;;;;;3.95;1.98;;;;;;;;;;7362512;19;20539;-70
2023/07/18 12:54:40;;;;;;;4.55;2.10;;;;;;;;;;7391270;19;20006;-73
2023/07/18 12:57:05;;;;;;;4.60;1.95;;;;;;;;;;7365212;19;20025;-71
2023/07/18 12:59:31;;;;;;;5.18;2.00;;;;;;;;;;7364207;19;20081;-70
2023/07/18 13:01:56;;;;;;;4.72;2.10;;;;;;;;;;7366600;19;20365;-71
2023/07/18 13:04:23;;;;;;;4.50;2.03;;;;;;;;;;7365981;19;20011;-71
2023/07/18 13:06:48;;;;;;;5.43;2.10;;;;;;;;;;7390147;19;20326;-74
2023/07/18 13:09:14;;;;;;;5.88;2.30;;;;;;;;;;7364380;19;20108;-70
2023/07/18 13:11:39;;;;;;;5.78;2.17;;;;;;;;;;7364066;19;20014;-70
2023/07/18 13:14:06;;;;;;;6.57;2.10;;;;;;;;;;7358057;19;20031;-69
2023/07/18 13:16:31;;;;;;;5.57;2.05;;;;;;;;;;7364916;19;20043;-69
2023/07/18 13:18:56;;;;;;;7.38;2.53;;;;;;;;;;7385477;19;20015;-76
2023/07/18 13:21:22;;;;;;;3.85;2.00;;;;;;;;;;7365031;19;20418;-75
2023/07/18 13:23:47;;;;;;;4.38;2.10;;;;;;;;;;7364822;19;20099;-75
2023/07/18 13:26:15;;;;;;;4.78;2.30;;;;;;;;;;7364909;19;20011;-74
2023/07/18 13:28:41;;;;;;;4.05;2.20;;;;;;;;;;7361146;19;20622;-74
2023/07/18 13:31:06;;;;;;;4.18;2.05;;;;;;;;;;7386842;19;20010;-74
2023/07/18 13:33:32;;;;;;;9.05;2.30;;;;;;;;;;7363200;19;20018;-74
2023/07/18 13:35:58;;;;;;;4.13;2.00;;;;;;;;;;7365823;19;20475;-74
2023/07/18 13:38:23;;;;;;;5.70;2.40;;;;;;;;;;7363630;19;20554;-75
2023/07/18 13:40:49;;;;;;;5.43;2.03;;;;;;;;;;7363725;19;20014;-75
2023/07/18 13:43:14;;;;;;;9.13;2.20;;;;;;;;;;7365450;19;20017;-74
2023/07/18 13:45:40;;;;;;;2.72;1.80;;;;;;;;;;7385672;19;20014;-74
2023/07/18 13:48:05;;;;;;;4.63;2.00;;;;;;;;;;7361584;19;20025;-74
2023/07/18 13:50:31;;;;;;;6.47;2.00;;;;;;;;;;7363457;19;20028;-77
2023/07/18 13:52:56;;;;;;;3.80;1.90;;;;;;;;;;7363244;19;20021;-73
2023/07/18 13:55:22;;;;;;;5.90;2.40;;;;;;;;;;7363894;19;20420;-74
2023/07/18 13:57:47;;;;;;;7.22;2.05;;;;;;;;;;7385813;19;20006;-74
2023/07/18 14:00:13;;;;;;;4.67;2.10;;;;;;;;;;7362666;19;20381;-69
2023/07/18 14:02:38;;;;;;;3.75;2.10;;;;;;;;;;7365073;19;20264;-72
2023/07/18 14:05:05;;;;;;;4.22;2.00;;;;;;;;;;7365040;19;20019;-72
2023/07/18 14:07:32;;;;;;;4.97;2.15;;;;;;;;;;7362252;19;20004;-73
2023/07/18 14:09:57;;;;;;;5.30;2.10;;;;;;;;;;7391344;19;20679;-72
2023/07/18 14:12:23;;;;;;;4.15;2.00;;;;;;;;;;7369006;19;20016;-72
2023/07/18 14:14:48;;;;;;;5.43;2.50;;;;;;;;;;7366879;19;20492;-72
2023/07/18 14:17:13;;;;;;;6.40;2.33;;;;;;;;;;7368953;19;20285;-72
2023/07/18 14:19:39;;;;;;;5.90;2.20;;;;;;;;;;7371715;19;20259;-75
2023/07/18 14:22:04;;;;;;;4.68;2.00;;;;;;;;;;7390751;19;20028;-72
2023/07/18 14:24:29;;;;;;;4.72;2.08;;;;;;;;;;7369364;19;20010;-69
2023/07/18 14:26:55;;;;;;;3.72;1.90;;;;;;;;;;7364119;19;20659;-74
2023/07/18 14:29:21;;;;;;;5.53;2.40;;;;;;;;;;7370012;19;20023;-73
2023/07/18 14:31:47;;;;;;;7.35;2.50;;;;;;;;;;7366566;19;20012;-79
2023/07/18 14:34:12;;;;;;;4.32;2.20;;;;;;;;;;7376884;19;20018;-72
2023/07/18 14:36:37;;;;;;;3.05;1.80;;;;;;;;;;7389868;19;20014;-73
2023/07/18 14:39:04;;;;;;;5.05;2.25;;;;;;;;;;7372685;19;20010;-72